Site contains unofficial IBTrACS data. Visit the IBTrACS Website to access archived data.

1934 NOT_NAMED (1934292N11136)


IBTrACS version v04r00. Visit IBTrACS website for data access.
Please direct all questions to the IBTrACS Q and A forum

Storm track - Intensity - Wind Radii - Intensity Data - Source Data - All data

Summary Information

Storm ID 1934292N11136
Start Oct 18 22Z
Landfall Oct 20 18Z
End Oct 24 22Z
ATCF IDs
Track status Best track data.

Storm track plot

Map of storm track

Intensity plots

No Intensity information for this storm


Radial wind information

No radial wind information for this storm


Position and Intensity Table

BASIN ISO_TIME_________ NATURE LAT LON
degrees north degrees east
WP 1934-10-18 22:00:00 NR 10.70 136.00
WP 1934-10-19 00:00:00 NR 10.81 135.23
WP 03:00:00 NR 10.98 134.07
WP 06:00:00 NR 11.17 132.94
WP 09:00:00 NR 11.41 131.85
WP 10:00:00 NR 11.50 131.50
WP 12:00:00 NR 11.70 130.82
WP 15:00:00 NR 12.04 129.84
WP 18:00:00 NR 12.39 128.95
WP 21:00:00 NR 12.71 128.15
WP 22:00:00 NR 12.80 127.90
WP 1934-10-20 00:00:00 NR 12.96 127.44
WP 03:00:00 NR 13.17 126.84
WP 06:00:00 NR 13.34 126.30
WP 09:00:00 NR 13.47 125.78
WP 10:00:00 NR 13.50 125.60
WP 12:00:00 NR 13.55 125.23
WP 15:00:00 NR 13.60 124.67
WP 18:00:00 NR 13.64 124.10
WP 21:00:00 NR 13.68 123.50
WP 22:00:00 NR 13.70 123.30
WP 1934-10-21 00:00:00 NR 13.77 122.87
WP 03:00:00 NR 13.89 122.19
WP 06:00:00 NR 14.02 121.50
WP 09:00:00 NR 14.16 120.82
WP 10:00:00 NR 14.20 120.60
WP 12:00:00 NR 14.27 120.17
WP 15:00:00 NR 14.37 119.54
WP 18:00:00 NR 14.47 118.94
WP 21:00:00 NR 14.57 118.38
WP 22:00:00 NR 14.60 118.20
WP 1934-10-22 00:00:00 NR 14.67 117.86
WP 03:00:00 NR 14.77 117.40
WP 06:00:00 NR 14.87 116.96
WP 09:00:00 NR 14.97 116.54
WP 10:00:00 NR 15.00 116.40
WP 12:00:00 NR 15.07 116.11
WP 15:00:00 NR 15.17 115.69
WP 18:00:00 NR 15.27 115.27
WP 21:00:00 NR 15.37 114.84
WP 22:00:00 NR 15.40 114.70
WP 1934-10-23 00:00:00 NR 15.45 114.40
WP 03:00:00 NR 15.52 113.94
WP 06:00:00 NR 15.59 113.49
WP 09:00:00 NR 15.67 113.04
WP 10:00:00 NR 15.70 112.90
WP 12:00:00 NR 15.78 112.63
WP 15:00:00 NR 15.91 112.23
WP 18:00:00 NR 16.04 111.84
WP 21:00:00 NR 16.16 111.44
WP 22:00:00 NR 16.20 111.30
WP 1934-10-24 00:00:00 NR 16.26 111.00
WP 03:00:00 NR 16.33 110.55
WP 06:00:00 NR 16.40 110.09
WP 09:00:00 NR 16.47 109.64
WP 10:00:00 NR 16.50 109.50
WP 12:00:00 NR 16.57 109.23
WP 15:00:00 NR 16.68 108.84
WP 18:00:00 NR 16.81 108.47
WP 21:00:00 NR 16.95 108.12
WP 22:00:00 NR 17.00 108.00

Source Information

Agency Information
USA
TOKYO
CMA
HKO
NEWDELHI
REUNION
BOM
NADI
WELLINGTON
DS824
TD9636 cons_worldwide_trop_cyclone_18710101-19891231-003:Line=9805
TD9635
NEUMANN
MLC

All available IBTrACS Data

SEASON BASIN SUBBASIN ISO_TIME_________ NATURE LAT LON DIST2LAND LANDFALL IFLAG USA SSHS TD9636 LAT TD9636 LON TD9636 STAGE STORM SPEED STORM DIR
Year degrees north degrees east km km 1 degrees north degrees east kts degrees
1934 WP MM 1934-10-18 22:00:00 NR 10.70 136.00 1084 1001 __________O___ -1 10.70 136.00 7 23 278
1934 WP MM 1934-10-19 00:00:00 NR 10.81 135.23 1001 888 __________P___ -1 10.81 135.23 7 23 278
1934 WP MM 03:00:00 NR 10.98 134.07 888 767 __________P___ -1 10.98 134.07 7 23 279
1934 WP MM 06:00:00 NR 11.17 132.94 767 667 __________P___ -1 11.17 132.94 7 22 281
1934 WP MM 09:00:00 NR 11.41 131.85 667 635 __________P___ -1 11.41 131.85 7 22 283
1934 WP MM 10:00:00 NR 11.50 131.50 624 551 __________O___ -1 11.50 131.50 7 21 286
1934 WP MM 12:00:00 NR 11.70 130.82 551 450 __________P___ -1 11.70 130.82 7 21 288
1934 WP MM 15:00:00 NR 12.04 129.84 450 370 __________P___ -1 12.04 129.84 7 20 291
1934 WP MM 18:00:00 NR 12.39 128.95 370 287 __________P___ -1 12.39 128.95 7 18 292
1934 WP MM 21:00:00 NR 12.71 128.15 287 269 __________P___ -1 12.71 128.15 7 17 292
1934 WP MM 22:00:00 NR 12.80 127.90 269 224 __________O___ -1 12.80 127.90 3 15 291
1934 WP MM 1934-10-20 00:00:00 NR 12.96 127.44 224 180 __________P___ -1 12.96 127.44 3 13 290
1934 WP MM 03:00:00 NR 13.17 126.84 180 148 __________P___ -1 13.17 126.84 3 12 289
1934 WP MM 06:00:00 NR 13.34 126.30 148 126 __________P___ -1 13.34 126.30 3 11 286
1934 WP MM 09:00:00 NR 13.47 125.78 129 120 __________P___ -1 13.47 125.78 3 10 284
1934 WP MM 10:00:00 NR 13.50 125.60 120 87 __________O___ -1 13.50 125.60 4 11 279
1934 WP MM 12:00:00 NR 13.55 125.23 87 34 __________P___ -1 13.55 125.23 4 11 276
1934 WP MM 15:00:00 NR 13.60 124.67 34 0 __________P___ -1 13.60 124.67 4 11 274
1934 WP MM 18:00:00 NR 13.64 124.10 0 0 __________P___ -1 13.64 124.10 4 11 274
1934 WP MM 21:00:00 NR 13.68 123.50 0 0 __________P___ -1 13.68 123.50 4 12 275
1934 WP MM 22:00:00 NR 13.70 123.30 0 0 __________O___ -1 13.70 123.30 4 13 278
1934 WP MM 1934-10-21 00:00:00 NR 13.77 122.87 0 0 __________P___ -1 13.77 122.87 4 13 280
1934 WP MM 03:00:00 NR 13.89 122.19 0 0 __________P___ -1 13.89 122.19 4 14 281
1934 WP MM 06:00:00 NR 14.02 121.50 0 0 __________P___ -1 14.02 121.50 4 14 281
1934 WP MM 09:00:00 NR 14.16 120.82 0 0 __________P___ -1 14.16 120.82 4 13 281
1934 WP MM 10:00:00 NR 14.20 120.60 0 0 __________O___ -1 14.20 120.60 4 13 280
1934 WP MM 12:00:00 NR 14.27 120.17 31 39 __________P___ -1 14.27 120.17 4 13 280
1934 WP MM 15:00:00 NR 14.37 119.54 78 78 __________P___ -1 14.37 119.54 4 12 280
1934 WP MM 18:00:00 NR 14.47 118.94 133 133 __________P___ -1 14.47 118.94 4 11 280
1934 WP MM 21:00:00 NR 14.57 118.38 184 193 __________P___ -1 14.57 118.38 4 11 280
1934 WP MM 22:00:00 NR 14.60 118.20 203 203 __________O___ -1 14.60 118.20 4 10 281
1934 WP MM 1934-10-22 00:00:00 NR 14.67 117.86 228 238 __________P___ -1 14.67 117.86 4 10 282
1934 WP MM 03:00:00 NR 14.77 117.40 276 276 __________P___ -1 14.77 117.40 4 9 283
1934 WP MM 06:00:00 NR 14.87 116.96 314 324 __________P___ -1 14.87 116.96 4 9 284
1934 WP MM 09:00:00 NR 14.97 116.54 360 360 __________P___ -1 14.97 116.54 4 8 284
1934 WP MM 10:00:00 NR 15.00 116.40 371 371 __________O___ -1 15.00 116.40 4 8 284
1934 WP MM 12:00:00 NR 15.07 116.11 398 398 __________P___ -1 15.07 116.11 4 8 284
1934 WP MM 15:00:00 NR 15.17 115.69 437 437 __________P___ -1 15.17 115.69 4 8 284
1934 WP MM 18:00:00 NR 15.27 115.27 477 488 __________P___ -1 15.27 115.27 4 8 284
1934 WP MM 21:00:00 NR 15.37 114.84 528 528 __________P___ -1 15.37 114.84 4 8 283
1934 WP MM 22:00:00 NR 15.40 114.70 539 539 __________O___ -1 15.40 114.70 4 9 281
1934 WP MM 1934-10-23 00:00:00 NR 15.45 114.40 555 516 __________P___ -1 15.45 114.40 4 9 279
1934 WP MM 03:00:00 NR 15.52 113.94 516 478 __________P___ -1 15.52 113.94 4 9 279
1934 WP MM 06:00:00 NR 15.59 113.49 478 433 __________P___ -1 15.59 113.49 4 9 280
1934 WP MM 09:00:00 NR 15.67 113.04 433 422 __________P___ -1 15.67 113.04 4 9 281
1934 WP MM 10:00:00 NR 15.70 112.90 422 395 __________O___ -1 15.70 112.90 4 8 285
1934 WP MM 12:00:00 NR 15.78 112.63 395 358 __________P___ -1 15.78 112.63 4 8 288
1934 WP MM 15:00:00 NR 15.91 112.23 358 323 __________P___ -1 15.91 112.23 4 8 289
1934 WP MM 18:00:00 NR 16.04 111.84 323 287 __________P___ -1 16.04 111.84 4 8 289
1934 WP MM 21:00:00 NR 16.16 111.44 287 280 __________P___ -1 16.16 111.44 4 8 287
1934 WP MM 22:00:00 NR 16.20 111.30 280 253 __________O___ -1 16.20 111.30 4 9 283
1934 WP MM 1934-10-24 00:00:00 NR 16.26 111.00 253 210 __________P___ -1 16.26 111.00 4 9 280
1934 WP MM 03:00:00 NR 16.33 110.55 210 185 __________P___ -1 16.33 110.55 4 9 279
1934 WP MM 06:00:00 NR 16.40 110.09 185 149 __________P___ -1 16.40 110.09 4 9 279
1934 WP MM 09:00:00 NR 16.47 109.64 149 139 __________P___ -1 16.47 109.64 4 9 281
1934 WP MM 10:00:00 NR 16.50 109.50 139 117 __________O___ -1 16.50 109.50 4 8 283
1934 WP MM 12:00:00 NR 16.57 109.23 117 92 __________P___ -1 16.57 109.23 4 8 286
1934 WP MM 15:00:00 NR 16.68 108.84 93 79 __________P___ -1 16.68 108.84 4 8 289
1934 WP MM 18:00:00 NR 16.81 108.47 79 62 __________P___ -1 16.81 108.47 4 7 291
1934 WP MM 21:00:00 NR 16.95 108.12 69 61 __________P___ -1 16.95 108.12 4 7 292
1934 WP MM 22:00:00 NR 17.00 108.00 61 __________O___ -1 17.00 108.00 4 7 293